Time;durP1;ratioP1;P1;durP2;ratioP2;P2;SDS_P1;SDS_P2;PMS_P1;PMS_P2;Temp;Humidity;BMP_temperature;BMP_pressure;BME280_temperature;BME280_humidity;BME280_pressure;Samples;Min_cycle;Max_cycle;Signal;HPM_P1;HPM_P2
2024/01/01 00:00:18;;;;;;;16.40;6.95;;;;;;;;;;5066717;28;20036;-77
2024/01/01 00:02:44;;;;;;;17.77;8.18;;;;;;;;;;5067486;28;20073;-77
2024/01/01 00:05:11;;;;;;;17.52;8.85;;;;;;;;;;5051926;28;20468;-77
2024/01/01 00:07:37;;;;;;;20.25;9.80;;;;;;;;;;5048663;28;20013;-76
2024/01/01 00:10:03;;;;;;;24.08;11.02;;;;;;;;;;5062200;28;20021;-76
2024/01/01 00:12:29;;;;;;;24.92;13.02;;;;;;;;;;5068823;28;20024;-77
2024/01/01 00:14:55;;;;;;;26.83;13.93;;;;;;;;;;5053162;28;20321;-77
2024/01/01 00:17:21;;;;;;;28.60;17.70;;;;;;;;;;5048647;28;20473;-78
2024/01/01 00:19:47;;;;;;;30.27;17.45;;;;;;;;;;5047723;28;20025;-77
2024/01/01 00:22:13;;;;;;;31.25;19.48;;;;;;;;;;5050747;28;20016;-77
2024/01/01 00:24:39;;;;;;;32.72;19.75;;;;;;;;;;5064187;28;20100;-77
2024/01/01 00:27:05;;;;;;;31.38;19.10;;;;;;;;;;5071099;28;20407;-77
2024/01/01 00:29:31;;;;;;;34.47;17.73;;;;;;;;;;5063132;28;20473;-77
2024/01/01 00:31:57;;;;;;;39.85;21.65;;;;;;;;;;5050537;28;20120;-77
2024/01/01 00:34:23;;;;;;;39.75;21.42;;;;;;;;;;5057660;28;20036;-76
2024/01/01 00:36:49;;;;;;;42.90;25.67;;;;;;;;;;5072286;28;20372;-77
2024/01/01 00:39:15;;;;;;;48.40;25.98;;;;;;;;;;5066753;28;20074;-76
2024/01/01 00:41:41;;;;;;;37.10;21.90;;;;;;;;;;5051648;28;20051;-76
2024/01/01 00:44:07;;;;;;;35.60;18.80;;;;;;;;;;5050444;28;20437;-76
2024/01/01 00:46:33;;;;;;;25.95;15.40;;;;;;;;;;5051093;28;20020;-77
2024/01/01 00:48:59;;;;;;;21.58;11.30;;;;;;;;;;5052670;28;20423;-76
2024/01/01 00:51:26;;;;;;;23.33;14.70;;;;;;;;;;5071637;28;20101;-76
2024/01/01 00:53:52;;;;;;;20.80;11.23;;;;;;;;;;5070526;28;20098;-76
2024/01/01 00:56:18;;;;;;;15.93;9.70;;;;;;;;;;5051812;28;20290;-77
2024/01/01 00:58:44;;;;;;;14.32;9.00;;;;;;;;;;5050404;28;20106;-77
2024/01/01 01:01:10;;;;;;;41.97;26.98;;;;;;;;;;5067426;28;20457;-76
2024/01/01 01:03:36;;;;;;;41.58;21.33;;;;;;;;;;5071093;28;20017;-76
2024/01/01 01:06:03;;;;;;;50.30;28.45;;;;;;;;;;5053930;28;20501;-76
2024/01/01 01:08:29;;;;;;;54.70;31.90;;;;;;;;;;5051528;28;20025;-76
2024/01/01 01:10:55;;;;;;;64.47;35.53;;;;;;;;;;5065244;28;20032;-76
2024/01/01 01:13:21;;;;;;;63.75;34.67;;;;;;;;;;5069807;28;20024;-77
2024/01/01 01:15:47;;;;;;;79.28;43.28;;;;;;;;;;5056507;28;20115;-76
2024/01/01 01:18:13;;;;;;;80.90;43.03;;;;;;;;;;5049960;28;20045;-77
2024/01/01 01:20:39;;;;;;;83.82;43.55;;;;;;;;;;5061556;28;20483;-76
2024/01/01 01:23:05;;;;;;;91.65;48.85;;;;;;;;;;5069546;28;20005;-77
2024/01/01 01:25:31;;;;;;;88.82;46.92;;;;;;;;;;5061003;28;20025;-76
2024/01/01 01:27:57;;;;;;;85.18;47.72;;;;;;;;;;5049832;28;20013;-76
2024/01/01 01:30:23;;;;;;;98.07;52.28;;;;;;;;;;5059504;28;20024;-77
2024/01/01 01:32:49;;;;;;;108.10;54.05;;;;;;;;;;5068721;28;20070;-76
2024/01/01 01:35:16;;;;;;;114.05;59.83;;;;;;;;;;5061879;28;20040;-77
2024/01/01 01:37:43;;;;;;;130.23;66.80;;;;;;;;;;5051164;28;20013;-76
2024/01/01 01:40:09;;;;;;;142.77;76.82;;;;;;;;;;5055968;28;20029;-77
2024/01/01 01:42:35;;;;;;;153.63;80.28;;;;;;;;;;5069490;28;20384;-77
2024/01/01 01:45:02;;;;;;;125.22;65.25;;;;;;;;;;5066950;28;20388;-76
2024/01/01 01:47:29;;;;;;;132.63;71.30;;;;;;;;;;5050820;28;20014;-76
2024/01/01 01:49:55;;;;;;;122.22;64.63;;;;;;;;;;5051697;28;20409;-76
2024/01/01 01:52:21;;;;;;;101.85;56.33;;;;;;;;;;5068922;28;20099;-77
2024/01/01 01:54:49;;;;;;;98.93;52.58;;;;;;;;;;5068119;28;20435;-77
2024/01/01 01:57:15;;;;;;;97.68;50.17;;;;;;;;;;5049383;28;20025;-76
2024/01/01 01:59:44;;;;;;;88.72;46.83;;;;;;;;;;5050588;28;20056;-76
2024/01/01 02:02:11;;;;;;;98.07;49.33;;;;;;;;;;5069111;28;20020;-76
2024/01/01 02:04:37;;;;;;;91.88;45.92;;;;;;;;;;5069021;28;20016;-76
2024/01/01 02:07:03;;;;;;;93.40;46.85;;;;;;;;;;5053373;28;20106;-76
2024/01/01 02:09:30;;;;;;;92.05;47.55;;;;;;;;;;5050843;28;20013;-76
2024/01/01 02:11:56;;;;;;;86.65;44.20;;;;;;;;;;5063055;28;20016;-77
2024/01/01 02:14:24;;;;;;;77.38;40.83;;;;;;;;;;5068914;28;20174;-76
2024/01/01 02:16:50;;;;;;;80.90;41.58;;;;;;;;;;5055698;28;20025;-76
2024/01/01 02:19:19;;;;;;;78.93;40.40;;;;;;;;;;5049815;28;20425;-76
2024/01/01 02:21:46;;;;;;;82.60;40.97;;;;;;;;;;5061152;28;20052;-76
2024/01/01 02:24:12;;;;;;;84.38;41.53;;;;;;;;;;5068606;28;20021;-77
2024/01/01 02:26:38;;;;;;;82.47;40.67;;;;;;;;;;5060214;28;20024;-76
2024/01/01 02:29:05;;;;;;;79.88;38.33;;;;;;;;;;5049006;28;20025;-76
2024/01/01 02:31:31;;;;;;;69.47;35.17;;;;;;;;;;5057246;28;20472;-76
2024/01/01 02:33:57;;;;;;;70.32;35.75;;;;;;;;;;5069475;28;20379;-77
2024/01/01 02:36:25;;;;;;;62.60;32.47;;;;;;;;;;5060749;28;20108;-76
2024/01/01 02:38:51;;;;;;;69.05;29.17;;;;;;;;;;5048467;28;20025;-76
2024/01/01 02:41:17;;;;;;;59.20;28.88;;;;;;;;;;5055292;28;20016;-76
2024/01/01 02:43:43;;;;;;;63.70;29.90;;;;;;;;;;5067830;28;20468;-77
2024/01/01 02:46:09;;;;;;;52.22;26.05;;;;;;;;;;5064061;28;20104;-77
2024/01/01 02:48:35;;;;;;;55.53;25.92;;;;;;;;;;5048434;28;20013;-77
2024/01/01 02:51:01;;;;;;;54.42;26.05;;;;;;;;;;5051664;28;20427;-76
2024/01/01 02:53:27;;;;;;;52.58;25.50;;;;;;;;;;5068292;28;20066;-76
2024/01/01 02:55:53;;;;;;;47.05;20.83;;;;;;;;;;5068815;28;20021;-77
2024/01/01 02:58:19;;;;;;;37.28;19.75;;;;;;;;;;5049508;28;20056;-76
2024/01/01 03:00:47;;;;;;;42.05;19.30;;;;;;;;;;5049346;28;20021;-76
2024/01/01 03:03:14;;;;;;;39.75;19.75;;;;;;;;;;5067380;28;20016;-77
2024/01/01 03:05:40;;;;;;;46.35;20.85;;;;;;;;;;5068934;28;20005;-76
2024/01/01 03:08:07;;;;;;;50.80;23.38;;;;;;;;;;5050386;28;20017;-77
2024/01/01 03:10:33;;;;;;;49.00;22.83;;;;;;;;;;5048467;28;20013;-76
2024/01/01 03:12:59;;;;;;;41.47;19.75;;;;;;;;;;5065306;28;20365;-77
2024/01/01 03:15:26;;;;;;;40.97;18.10;;;;;;;;;;5068076;28;20069;-76
2024/01/01 03:17:52;;;;;;;39.28;18.10;;;;;;;;;;5054727;28;20503;-77
2024/01/01 03:20:18;;;;;;;35.78;17.50;;;;;;;;;;5047517;28;20086;-76
2024/01/01 03:22:45;;;;;;;37.95;17.48;;;;;;;;;;5061581;28;20077;-76
2024/01/01 03:25:11;;;;;;;36.65;15.43;;;;;;;;;;5068009;28;20021;-76
2024/01/01 03:27:37;;;;;;;35.05;15.13;;;;;;;;;;5057963;28;20021;-77
2024/01/01 03:30:06;;;;;;;33.00;14.18;;;;;;;;;;5047832;28;20013;-76
2024/01/01 03:32:35;;;;;;;32.08;12.00;;;;;;;;;;5059230;28;20020;-76
2024/01/01 03:35:01;;;;;;;23.70;10.57;;;;;;;;;;5067436;28;20473;-77
2024/01/01 03:37:27;;;;;;;31.60;10.95;;;;;;;;;;5057954;28;20442;-76
2024/01/01 03:39:54;;;;;;;26.25;9.82;;;;;;;;;;5048973;28;20492;-77
2024/01/01 03:42:20;;;;;;;23.50;9.82;;;;;;;;;;5055720;28;20024;-77
2024/01/01 03:44:46;;;;;;;25.55;10.88;;;;;;;;;;5067227;28;20066;-76
2024/01/01 03:47:12;;;;;;;23.95;11.82;;;;;;;;;;5062393;28;20021;-77
2024/01/01 03:49:40;;;;;;;30.55;10.38;;;;;;;;;;5047505;28;20352;-76
2024/01/01 03:52:07;;;;;;;22.30;8.45;;;;;;;;;;5054377;28;20447;-76
2024/01/01 03:54:33;;;;;;;26.92;8.15;;;;;;;;;;5067624;28;20020;-76
2024/01/01 03:56:59;;;;;;;18.85;6.90;;;;;;;;;;5067561;28;20558;-77
2024/01/01 03:59:25;;;;;;;21.08;6.75;;;;;;;;;;5051944;28;20043;-76
2024/01/01 04:01:51;;;;;;;20.20;7.45;;;;;;;;;;5054121;28;20480;-77
2024/01/01 04:04:17;;;;;;;25.95;9.07;;;;;;;;;;5072818;28;20015;-76
2024/01/01 04:06:44;;;;;;;25.80;10.30;;;;;;;;;;5070104;28;20016;-77
2024/01/01 04:09:10;;;;;;;28.50;11.30;;;;;;;;;;5051141;28;20045;-77
2024/01/01 04:11:36;;;;;;;28.83;12.40;;;;;;;;;;5052583;28;20024;-76
2024/01/01 04:14:02;;;;;;;30.30;11.98;;;;;;;;;;5072046;28;20024;-76
2024/01/01 04:16:29;;;;;;;24.08;9.95;;;;;;;;;;5072290;28;20016;-77
2024/01/01 04:18:55;;;;;;;27.73;8.93;;;;;;;;;;5052470;28;20047;-77
2024/01/01 04:21:21;;;;;;;16.92;5.90;;;;;;;;;;5051021;28;20395;-76
2024/01/01 04:23:48;;;;;;;15.40;4.93;;;;;;;;;;5069240;28;20017;-77
2024/01/01 04:26:14;;;;;;;17.08;4.57;;;;;;;;;;5070843;28;20095;-77
2024/01/01 04:28:40;;;;;;;13.57;3.60;;;;;;;;;;5055487;28;20013;-76
2024/01/01 04:31:06;;;;;;;17.10;2.90;;;;;;;;;;5052492;28;20035;-76
2024/01/01 04:33:32;;;;;;;13.93;3.42;;;;;;;;;;5064926;28;20039;-76
2024/01/01 04:35:58;;;;;;;12.55;3.17;;;;;;;;;;5071231;28;20392;-77
2024/01/01 04:38:24;;;;;;;11.05;3.30;;;;;;;;;;5058992;28;20056;-77
2024/01/01 04:40:50;;;;;;;12.63;2.40;;;;;;;;;;5050911;28;20021;-76
2024/01/01 04:43:16;;;;;;;10.68;2.00;;;;;;;;;;5061113;28;20020;-77
2024/01/01 04:45:42;;;;;;;8.55;2.05;;;;;;;;;;5070138;28;20539;-77
2024/01/01 04:48:08;;;;;;;7.75;1.88;;;;;;;;;;5062203;28;20025;-76
2024/01/01 04:50:34;;;;;;;8.05;1.67;;;;;;;;;;5051637;28;20021;-77
2024/01/01 04:53:00;;;;;;;7.95;1.40;;;;;;;;;;5058443;28;20025;-77
2024/01/01 04:55:26;;;;;;;10.27;3.40;;;;;;;;;;5070506;28;20013;-77
2024/01/01 04:57:52;;;;;;;9.48;1.73;;;;;;;;;;5062431;28;20027;-77
2024/01/01 05:00:18;;;;;;;14.57;1.60;;;;;;;;;;5051793;28;20032;-76
2024/01/01 05:02:44;;;;;;;12.90;2.13;;;;;;;;;;5056658;28;20024;-76
2024/01/01 05:05:11;;;;;;;16.73;4.13;;;;;;;;;;5070213;28;20017;-77
2024/01/01 05:07:37;;;;;;;15.10;5.10;;;;;;;;;;5065973;28;20142;-77
2024/01/01 05:10:06;;;;;;;25.90;5.88;;;;;;;;;;5050233;28;20424;-77
2024/01/01 05:12:32;;;;;;;25.95;5.70;;;;;;;;;;5054195;28;20299;-76
2024/01/01 05:14:59;;;;;;;22.25;6.30;;;;;;;;;;5069778;28;20469;-76
2024/01/01 05:17:25;;;;;;;21.65;5.90;;;;;;;;;;5068612;28;20129;-76
2024/01/01 05:19:51;;;;;;;24.92;5.65;;;;;;;;;;5049915;28;20056;-77
2024/01/01 05:22:18;;;;;;;21.88;5.32;;;;;;;;;;5049649;28;20017;-76
2024/01/01 05:24:44;;;;;;;19.50;4.45;;;;;;;;;;5070876;28;20016;-77
2024/01/01 05:27:10;;;;;;;23.23;5.47;;;;;;;;;;5069916;28;20039;-77
2024/01/01 05:29:36;;;;;;;25.05;4.90;;;;;;;;;;5051548;28;20036;-76
2024/01/01 05:32:02;;;;;;;21.48;4.85;;;;;;;;;;5050774;28;20421;-76
2024/01/01 05:34:28;;;;;;;20.50;4.38;;;;;;;;;;5067226;28;20032;-76
2024/01/01 05:36:54;;;;;;;23.67;4.10;;;;;;;;;;5069625;28;20116;-76
2024/01/01 05:39:20;;;;;;;16.02;3.25;;;;;;;;;;5055779;28;20103;-77
2024/01/01 05:41:46;;;;;;;20.67;3.50;;;;;;;;;;5050016;28;20381;-77
2024/01/01 05:44:12;;;;;;;16.08;2.92;;;;;;;;;;5065110;28;20464;-77
2024/01/01 05:46:38;;;;;;;22.10;3.13;;;;;;;;;;5069751;28;20009;-77
2024/01/01 05:49:04;;;;;;;24.05;2.88;;;;;;;;;;5057821;28;20028;-77
2024/01/01 05:51:30;;;;;;;22.15;3.00;;;;;;;;;;5049346;28;20542;-77
2024/01/01 05:53:57;;;;;;;31.88;4.57;;;;;;;;;;5060661;28;20024;-77
2024/01/01 05:56:24;;;;;;;20.58;2.78;;;;;;;;;;5070737;28;20021;-77
2024/01/01 05:58:51;;;;;;;21.05;3.42;;;;;;;;;;5060454;28;20444;-77
2024/01/01 06:01:17;;;;;;;15.45;3.13;;;;;;;;;;5049030;28;20718;-77
2024/01/01 06:03:44;;;;;;;24.80;2.95;;;;;;;;;;5057014;28;20395;-77
2024/01/01 06:06:10;;;;;;;14.95;2.63;;;;;;;;;;5070197;28;20017;-76
2024/01/01 06:08:36;;;;;;;17.02;2.42;;;;;;;;;;5062643;28;20016;-77
2024/01/01 06:11:02;;;;;;;17.70;2.35;;;;;;;;;;5049569;28;20051;-77
2024/01/01 06:13:28;;;;;;;19.00;2.47;;;;;;;;;;5053703;28;20103;-77
2024/01/01 06:15:54;;;;;;;16.88;2.80;;;;;;;;;;5068187;28;20484;-77
2024/01/01 06:18:21;;;;;;;11.00;2.00;;;;;;;;;;5067397;28;20487;-78
2024/01/01 06:20:47;;;;;;;8.65;0.82;;;;;;;;;;5039543;28;20626;-77
2024/01/01 06:23:13;;;;;;;5.45;0.40;;;;;;;;;;5039113;28;20040;-76
2024/01/01 06:25:39;;;;;;;4.03;0.30;;;;;;;;;;5068028;28;20103;-77
2024/01/01 06:28:05;;;;;;;3.60;0.40;;;;;;;;;;5067976;28;20016;-76
2024/01/01 06:30:33;;;;;;;9.18;0.63;;;;;;;;;;5039908;28;20021;-76
2024/01/01 06:33:00;;;;;;;9.40;0.88;;;;;;;;;;5038854;28;20027;-76
2024/01/01 06:35:30;;;;;;;4.75;0.70;;;;;;;;;;5042191;28;20409;-76
2024/01/01 06:37:56;;;;;;;7.15;0.85;;;;;;;;;;5038603;28;20013;-76
2024/01/01 06:40:22;;;;;;;7.78;0.50;;;;;;;;;;5040698;28;20462;-76
2024/01/01 06:42:48;;;;;;;7.38;0.80;;;;;;;;;;5046805;28;20104;-76
2024/01/01 06:45:14;;;;;;;4.38;0.70;;;;;;;;;;5062696;28;20103;-77
2024/01/01 06:47:40;;;;;;;4.70;0.88;;;;;;;;;;5068566;28;20023;-78
2024/01/01 06:50:06;;;;;;;10.25;1.05;;;;;;;;;;5053223;28;20124;-76
2024/01/01 06:52:32;;;;;;;3.47;0.75;;;;;;;;;;5049508;28;20021;-77
2024/01/01 06:54:59;;;;;;;8.75;1.15;;;;;;;;;;5062875;28;20109;-76
2024/01/01 06:57:25;;;;;;;9.55;0.93;;;;;;;;;;5068284;28;20021;-76
2024/01/01 06:59:51;;;;;;;7.78;1.40;;;;;;;;;;5054780;28;20028;-76
2024/01/01 07:02:17;;;;;;;11.77;1.08;;;;;;;;;;5048123;28;20479;-77
2024/01/01 07:04:43;;;;;;;6.72;1.73;;;;;;;;;;5059529;28;20013;-77
2024/01/01 07:07:10;;;;;;;6.93;1.10;;;;;;;;;;5069307;28;20078;-76
2024/01/01 07:09:36;;;;;;;16.13;1.75;;;;;;;;;;5057487;28;20513;-76
2024/01/01 07:12:18;;;;;;;8.75;1.70;;;;;;;;;;5048160;28;20021;-77
2024/01/01 07:14:44;;;;;;;13.35;1.73;;;;;;;;;;5055463;28;20479;-80
2024/01/01 07:17:10;;;;;;;13.23;2.00;;;;;;;;;;5046224;28;20453;-78
2024/01/01 07:19:36;;;;;;;19.23;3.05;;;;;;;;;;5049837;28;20540;-76
2024/01/01 07:22:02;;;;;;;23.23;2.92;;;;;;;;;;5046636;28;20025;-78
2024/01/01 07:24:29;;;;;;;12.38;1.90;;;;;;;;;;5055390;28;20526;-78
2024/01/01 07:26:55;;;;;;;11.25;1.70;;;;;;;;;;5051257;28;20040;-78
2024/01/01 07:29:21;;;;;;;20.90;2.63;;;;;;;;;;5049009;28;20048;-78
2024/01/01 07:31:47;;;;;;;16.95;2.30;;;;;;;;;;5051236;28;20384;-78
2024/01/01 07:34:15;;;;;;;18.73;2.35;;;;;;;;;;5045833;28;20036;-79
2024/01/01 07:36:42;;;;;;;18.58;2.10;;;;;;;;;;5041319;28;20013;-78
2024/01/01 07:39:08;;;;;;;15.65;2.03;;;;;;;;;;5052381;28;20461;-78
2024/01/01 07:41:34;;;;;;;20.55;2.78;;;;;;;;;;5040394;28;20017;-78
2024/01/01 07:44:00;;;;;;;12.95;1.58;;;;;;;;;;5041526;28;20035;-78
2024/01/01 07:46:26;;;;;;;10.52;2.33;;;;;;;;;;5041544;28;20075;-78
2024/01/01 07:48:53;;;;;;;8.30;1.15;;;;;;;;;;5040777;28;20028;-78
2024/01/01 07:51:19;;;;;;;5.78;1.33;;;;;;;;;;5039981;28;20063;-80
2024/01/01 07:53:45;;;;;;;8.68;1.80;;;;;;;;;;5032937;28;20258;-78
2024/01/01 07:56:11;;;;;;;10.25;2.00;;;;;;;;;;5067664;28;20073;-78
2024/01/01 07:58:37;;;;;;;15.05;2.30;;;;;;;;;;5072432;28;20032;-77
2024/01/01 08:01:03;;;;;;;8.98;1.95;;;;;;;;;;5055398;28;20044;-78
2024/01/01 08:03:29;;;;;;;18.67;2.80;;;;;;;;;;5051687;28;20172;-77
2024/01/01 08:05:55;;;;;;;22.38;2.60;;;;;;;;;;5064745;28;20104;-78
2024/01/01 08:08:21;;;;;;;11.40;2.08;;;;;;;;;;5072737;28;20464;-77
2024/01/01 08:10:47;;;;;;;7.72;1.38;;;;;;;;;;5058036;28;20020;-78
2024/01/01 08:13:13;;;;;;;10.15;1.77;;;;;;;;;;5051489;28;20048;-78
2024/01/01 08:15:39;;;;;;;9.48;1.70;;;;;;;;;;5063318;28;20149;-78
2024/01/01 08:18:06;;;;;;;10.95;1.77;;;;;;;;;;5071363;28;20016;-78
2024/01/01 08:20:32;;;;;;;12.32;1.83;;;;;;;;;;5064287;28;20052;-78
2024/01/01 08:22:58;;;;;;;11.65;2.08;;;;;;;;;;5050400;28;20534;-78
2024/01/01 08:25:24;;;;;;;9.32;1.65;;;;;;;;;;5055553;28;20028;-78
2024/01/01 08:27:50;;;;;;;13.02;1.58;;;;;;;;;;5070514;28;20020;-77
2024/01/01 08:30:16;;;;;;;8.57;1.77;;;;;;;;;;5067183;28;20021;-78
2024/01/01 08:32:42;;;;;;;10.90;1.73;;;;;;;;;;5050221;28;20108;-78
2024/01/01 08:35:09;;;;;;;11.98;1.98;;;;;;;;;;5052962;28;20556;-78
2024/01/01 08:37:34;;;;;;;7.55;1.60;;;;;;;;;;5049416;28;20013;-80
2024/01/01 08:40:01;;;;;;;9.07;1.40;;;;;;;;;;5051410;28;20521;-83
2024/01/01 08:42:27;;;;;;;9.50;1.10;;;;;;;;;;5065685;28;20028;-78
2024/01/01 08:44:53;;;;;;;9.73;1.50;;;;;;;;;;5070737;28;20385;-78
2024/01/01 08:47:19;;;;;;;7.15;1.48;;;;;;;;;;5072162;28;20023;-78
2024/01/01 08:49:45;;;;;;;16.08;2.47;;;;;;;;;;5071684;28;20017;-78
2024/01/01 08:52:11;;;;;;;18.75;2.50;;;;;;;;;;5056009;28;20501;-76
2024/01/01 08:54:37;;;;;;;14.60;2.20;;;;;;;;;;5050786;28;20264;-78
2024/01/01 08:57:03;;;;;;;11.63;1.85;;;;;;;;;;5052020;28;20033;-78
2024/01/01 08:59:29;;;;;;;12.57;1.90;;;;;;;;;;5049948;28;20052;-78
2024/01/01 09:01:55;;;;;;;11.18;1.90;;;;;;;;;;5063470;28;20430;-77
2024/01/01 09:04:21;;;;;;;13.85;2.03;;;;;;;;;;5071743;28;20017;-78
2024/01/01 09:06:47;;;;;;;19.08;2.88;;;;;;;;;;5058547;28;20404;-77
2024/01/01 09:09:13;;;;;;;14.93;2.60;;;;;;;;;;5060630;28;20020;-77
2024/01/01 09:11:39;;;;;;;16.13;2.88;;;;;;;;;;5052247;28;20079;-78
2024/01/01 09:14:05;;;;;;;18.80;3.45;;;;;;;;;;5048908;28;20025;-78
2024/01/01 09:16:31;;;;;;;20.55;4.10;;;;;;;;;;5055647;28;20016;-78
2024/01/01 09:18:59;;;;;;;18.45;2.90;;;;;;;;;;5062929;28;20033;-78
2024/01/01 09:21:26;;;;;;;14.75;2.40;;;;;;;;;;5069607;28;20357;-77
2024/01/01 09:23:57;;;;;;;9.63;2.70;;;;;;;;;;5066856;28;20116;-78
2024/01/01 09:26:24;;;;;;;20.40;3.60;;;;;;;;;;5056134;28;20445;-78
2024/01/01 09:28:50;;;;;;;22.02;2.58;;;;;;;;;;5062156;28;20016;-78
2024/01/01 09:31:16;;;;;;;19.58;2.70;;;;;;;;;;5069814;28;20020;-77
2024/01/01 09:33:42;;;;;;;19.50;3.40;;;;;;;;;;5069826;28;20024;-78
2024/01/01 09:36:08;;;;;;;21.15;3.00;;;;;;;;;;5053616;28;20075;-78
2024/01/01 09:38:34;;;;;;;12.95;1.85;;;;;;;;;;5030186;28;20048;-78
2024/01/01 09:41:00;;;;;;;22.45;2.55;;;;;;;;;;5029865;28;20045;-77
2024/01/01 09:43:26;;;;;;;15.00;2.50;;;;;;;;;;5067648;28;20281;-79
2024/01/01 09:45:52;;;;;;;19.45;2.70;;;;;;;;;;5071092;28;20051;-78
2024/01/01 09:48:18;;;;;;;12.30;2.95;;;;;;;;;;5052363;28;20048;-77
2024/01/01 09:50:48;;;;;;;17.52;2.90;;;;;;;;;;5050414;28;20413;-78
2024/01/01 09:53:14;;;;;;;14.23;2.77;;;;;;;;;;5065104;28;20066;-78
2024/01/01 09:55:40;;;;;;;20.80;2.58;;;;;;;;;;5064352;28;20021;-77
2024/01/01 09:58:06;;;;;;;24.85;2.70;;;;;;;;;;5062335;28;20013;-78
2024/01/01 10:00:32;;;;;;;15.00;2.53;;;;;;;;;;5056967;28;20060;-77
2024/01/01 10:03:10;;;;;;;14.55;3.22;;;;;;;;;;5054268;28;20127;-77
2024/01/01 10:05:38;;;;;;;15.30;2.70;;;;;;;;;;5058346;28;20035;-79
2024/01/01 10:08:12;;;;;;;20.45;3.63;;;;;;;;;;5047938;28;20017;-77
2024/01/01 10:10:39;;;;;;;18.20;2.42;;;;;;;;;;5049078;28;21124;-77
2024/01/01 10:13:12;;;;;;;19.48;2.45;;;;;;;;;;5060484;28;20048;-78
2024/01/01 10:15:39;;;;;;;16.38;3.35;;;;;;;;;;5069760;28;20372;-78
2024/01/01 10:18:09;;;;;;;12.93;2.13;;;;;;;;;;5056548;28;20341;-78
2024/01/01 10:20:35;;;;;;;17.25;2.35;;;;;;;;;;5047356;28;20477;-77
2024/01/01 10:23:05;;;;;;;15.40;3.13;;;;;;;;;;5058705;28;20021;-78
2024/01/01 10:25:31;;;;;;;19.02;2.35;;;;;;;;;;5069466;28;20016;-78
2024/01/01 10:27:59;;;;;;;21.67;2.45;;;;;;;;;;5059192;28;20016;-78
2024/01/01 10:30:26;;;;;;;16.00;2.63;;;;;;;;;;5070755;28;20021;-78
2024/01/01 10:32:53;;;;;;;17.45;2.40;;;;;;;;;;5058465;28;20036;-78
2024/01/01 10:35:19;;;;;;;14.75;2.25;;;;;;;;;;5047555;28;20098;-78
2024/01/01 10:37:47;;;;;;;12.40;2.25;;;;;;;;;;5055928;28;20029;-78
2024/01/01 10:40:14;;;;;;;19.13;3.10;;;;;;;;;;5069847;28;20036;-78
2024/01/01 10:42:47;;;;;;;13.57;2.45;;;;;;;;;;5063027;28;20041;-78
2024/01/01 10:45:13;;;;;;;17.15;2.75;;;;;;;;;;5049338;28;20036;-78
2024/01/01 10:47:40;;;;;;;15.10;2.20;;;;;;;;;;5052117;28;20018;-78
2024/01/01 10:50:21;;;;;;;8.35;1.75;;;;;;;;;;5050140;28;20028;-78
2024/01/01 10:52:55;;;;;;;10.65;2.70;;;;;;;;;;5056552;28;20070;-78
2024/01/01 10:55:21;;;;;;;19.33;3.08;;;;;;;;;;5061352;28;20028;-78
2024/01/01 10:58:09;;;;;;;14.80;2.60;;;;;;;;;;5060104;28;20029;-78
2024/01/01 11:00:41;;;;;;;16.80;2.05;;;;;;;;;;5056231;28;20021;-78
2024/01/01 11:03:12;;;;;;;15.18;2.00;;;;;;;;;;5061149;28;20381;-78
2024/01/01 11:05:38;;;;;;;17.23;2.60;;;;;;;;;;5058155;28;20484;-78
2024/01/01 11:08:04;;;;;;;17.73;2.47;;;;;;;;;;5059332;28;20059;-78
2024/01/01 11:10:49;;;;;;;14.52;2.72;;;;;;;;;;5059607;28;20422;-78
2024/01/01 11:13:27;;;;;;;10.73;2.13;;;;;;;;;;5060019;28;20021;-78
2024/01/01 11:16:00;;;;;;;18.30;2.80;;;;;;;;;;5068389;28;20066;-78
2024/01/01 11:18:33;;;;;;;20.02;2.40;;;;;;;;;;5060676;28;20045;-78
2024/01/01 11:21:06;;;;;;;16.30;2.17;;;;;;;;;;5048030;28;20029;-78
2024/01/01 11:23:42;;;;;;;17.65;2.03;;;;;;;;;;5056410;28;20020;-77
2024/01/01 11:26:26;;;;;;;20.02;2.22;;;;;;;;;;5069001;28;20020;-78
2024/01/01 11:28:52;;;;;;;18.13;3.40;;;;;;;;;;5058163;28;20075;-78
2024/01/01 11:31:18;;;;;;;10.55;1.83;;;;;;;;;;5048684;28;20021;-78
2024/01/01 11:33:45;;;;;;;14.32;2.20;;;;;;;;;;5057003;28;20477;-77
2024/01/01 11:36:11;;;;;;;11.77;2.05;;;;;;;;;;5069236;28;20095;-78
2024/01/01 11:38:37;;;;;;;9.25;1.73;;;;;;;;;;5060174;28;20482;-78
2024/01/01 11:41:04;;;;;;;14.52;1.98;;;;;;;;;;5053268;28;20732;-78
2024/01/01 11:43:30;;;;;;;11.55;2.03;;;;;;;;;;5054990;28;20048;-78
2024/01/01 11:45:57;;;;;;;10.60;2.65;;;;;;;;;;5068335;28;20024;-77
2024/01/01 11:48:23;;;;;;;10.63;1.90;;;;;;;;;;5063262;28;20019;-77
2024/01/01 11:50:50;;;;;;;14.85;2.55;;;;;;;;;;5047492;28;20024;-78
2024/01/01 11:53:16;;;;;;;10.82;2.17;;;;;;;;;;5035183;28;20108;-77
2024/01/01 11:55:42;;;;;;;10.32;2.25;;;;;;;;;;5047453;28;20049;-77
2024/01/01 11:58:09;;;;;;;12.98;1.95;;;;;;;;;;5030651;28;20701;-81
2024/01/01 12:00:36;;;;;;;11.32;1.70;;;;;;;;;;5055677;28;20044;-79
2024/01/01 12:03:03;;;;;;;11.02;1.83;;;;;;;;;;5050208;28;20021;-78
2024/01/01 12:05:30;;;;;;;9.82;1.67;;;;;;;;;;5049940;28;20019;-79
2024/01/01 12:07:56;;;;;;;8.85;1.60;;;;;;;;;;5049008;28;20374;-78
2024/01/01 12:10:25;;;;;;;12.23;1.70;;;;;;;;;;5049245;28;20049;-78
2024/01/01 12:12:59;;;;;;;14.25;2.20;;;;;;;;;;5050518;28;20020;-78
2024/01/01 12:15:29;;;;;;;11.75;2.30;;;;;;;;;;5048789;28;20067;-79
2024/01/01 12:17:55;;;;;;;12.65;1.67;;;;;;;;;;5051909;28;20025;-77
2024/01/01 12:20:23;;;;;;;13.27;2.95;;;;;;;;;;5069445;28;20025;-78
2024/01/01 12:22:49;;;;;;;13.43;1.70;;;;;;;;;;5072363;28;20107;-78
2024/01/01 12:25:16;;;;;;;10.27;1.60;;;;;;;;;;5058345;28;20012;-78
2024/01/01 12:27:42;;;;;;;14.15;2.35;;;;;;;;;;5063446;28;20016;-78
2024/01/01 12:30:09;;;;;;;14.45;2.63;;;;;;;;;;5063329;28;20025;-78
2024/01/01 12:32:35;;;;;;;13.65;1.95;;;;;;;;;;5061374;28;20228;-78
2024/01/01 12:35:01;;;;;;;8.57;1.58;;;;;;;;;;5064788;28;20037;-78
2024/01/01 12:37:27;;;;;;;13.32;1.90;;;;;;;;;;5062520;28;20066;-78
2024/01/01 12:39:53;;;;;;;14.25;2.90;;;;;;;;;;5058297;28;20109;-78
2024/01/01 12:42:19;;;;;;;16.77;2.50;;;;;;;;;;5063083;28;20114;-78
2024/01/01 12:44:45;;;;;;;16.42;1.88;;;;;;;;;;5064006;28;20551;-78
2024/01/01 12:47:11;;;;;;;10.63;2.28;;;;;;;;;;5064061;28;20058;-78
2024/01/01 12:49:37;;;;;;;12.13;2.55;;;;;;;;;;5061985;28;20815;-78
2024/01/01 12:52:04;;;;;;;11.65;2.03;;;;;;;;;;5056797;28;20111;-78
2024/01/01 12:54:30;;;;;;;8.40;1.60;;;;;;;;;;5059848;28;20384;-79
2024/01/01 12:56:57;;;;;;;8.77;1.52;;;;;;;;;;5051716;28;20017;-78
2024/01/01 12:59:23;;;;;;;14.05;2.13;;;;;;;;;;5054131;28;20054;-81
2024/01/01 13:01:49;;;;;;;16.83;2.15;;;;;;;;;;5057373;28;20522;-79
2024/01/01 13:04:15;;;;;;;17.60;2.00;;;;;;;;;;5056537;28;20032;-79
2024/01/01 13:06:41;;;;;;;14.98;2.70;;;;;;;;;;5061998;28;20012;-79
2024/01/01 13:09:08;;;;;;;10.73;2.85;;;;;;;;;;5060505;28;20023;-79
2024/01/01 13:11:34;;;;;;;16.17;2.00;;;;;;;;;;5069482;28;20042;-79
2024/01/01 13:14:00;;;;;;;9.10;1.60;;;;;;;;;;5057732;28;20028;-79
2024/01/01 13:16:26;;;;;;;8.15;1.95;;;;;;;;;;5063356;28;20126;-79
2024/01/01 13:18:52;;;;;;;14.45;1.83;;;;;;;;;;5058524;28;20043;-79
2024/01/01 13:21:19;;;;;;;10.05;1.70;;;;;;;;;;5069865;28;20111;-79
2024/01/01 13:23:45;;;;;;;11.90;2.10;;;;;;;;;;5054949;28;20037;-79
2024/01/01 13:26:11;;;;;;;13.45;2.10;;;;;;;;;;5044478;28;20409;-79
2024/01/01 13:28:37;;;;;;;14.45;1.88;;;;;;;;;;5053282;28;20024;-79
2024/01/01 13:31:04;;;;;;;13.40;1.88;;;;;;;;;;5054271;28;20017;-79
2024/01/01 13:33:30;;;;;;;13.02;3.20;;;;;;;;;;5057872;28;20023;-79
2024/01/01 13:35:56;;;;;;;17.20;3.13;;;;;;;;;;5068984;28;20396;-79
2024/01/01 13:38:22;;;;;;;16.13;1.92;;;;;;;;;;5070230;28;20266;-79
2024/01/01 13:40:48;;;;;;;11.38;1.60;;;;;;;;;;5069767;28;20032;-79
2024/01/01 13:43:14;;;;;;;13.43;2.05;;;;;;;;;;5070798;28;20020;-79
2024/01/01 13:45:41;;;;;;;15.57;2.25;;;;;;;;;;5069983;28;20548;-79
2024/01/01 13:48:11;;;;;;;14.02;2.00;;;;;;;;;;5069467;28;20017;-79
2024/01/01 13:50:39;;;;;;;12.45;2.15;;;;;;;;;;5058821;28;20025;-79
2024/01/01 13:53:05;;;;;;;14.77;2.00;;;;;;;;;;5049092;28;20017;-79
2024/01/01 13:55:32;;;;;;;10.77;1.70;;;;;;;;;;5060608;28;20041;-79
2024/01/01 13:57:59;;;;;;;17.50;2.40;;;;;;;;;;5050161;28;20024;-79
2024/01/01 14:00:27;;;;;;;10.55;1.80;;;;;;;;;;5058850;28;20032;-79
2024/01/01 14:02:53;;;;;;;15.57;2.33;;;;;;;;;;5069408;28;20423;-80
2024/01/01 14:05:19;;;;;;;12.30;2.00;;;;;;;;;;5068592;28;20021;-79
2024/01/01 14:07:48;;;;;;;12.85;2.65;;;;;;;;;;5068219;28;20031;-79
2024/01/01 14:10:15;;;;;;;11.95;1.90;;;;;;;;;;5061549;28;20081;-79
2024/01/01 14:12:41;;;;;;;13.70;2.40;;;;;;;;;;5048640;28;20108;-79
2024/01/01 14:15:07;;;;;;;14.00;1.98;;;;;;;;;;5054916;28;20158;-79
2024/01/01 14:17:33;;;;;;;9.68;1.67;;;;;;;;;;5068449;28;20020;-79
2024/01/01 14:20:00;;;;;;;9.55;1.85;;;;;;;;;;5064941;28;20026;-79
2024/01/01 14:22:26;;;;;;;11.82;2.03;;;;;;;;;;5050101;28;20013;-79
2024/01/01 14:24:52;;;;;;;11.93;2.10;;;;;;;;;;5052311;28;20013;-79